No particular awareness of the weather is required.    There are no Weather-warnings


Meteo18 Weather Cam more information Meteo18 Weather Cam


Thunder radar more information blitzortung!


Rain radar more information rain snow radar


Visit our other weather sites:

Template documentation
and downloads

And another site



Weather Underground History page Text

Daily Summary for May 12, 2017 Units:  English    Metric   Both
« Previous Day
Next Day »
Daily Weekly Monthly Yearly Custom
  High: Low: Average:
Temperature: TemperatureC °F 7.6 °F 13.4 °F
Dew Point: DewpointC °F 7.2 °F 11.6 °F
Humidity: Humidity % 60 % 89 %
Wind Speed: WindSpeedKMH mph 0.0 mph 2.2 mph
Wind Gust: WindSpeedGustKMH mph - -
Wind:- - SSE
Pressure: PressurehPa in 999.9 in -
Precipitation: 8.4 in    
Historical Graphs
 
 
Tabular Data for May 12, 2017
Time Temperature Dew Point Pressure Wind Wind Speed Wind Gust Humidity Rainfall Rate (Hourly)
TemperatureC °F DewpointC °F PressurehPa in Calm     Humidity % HourlyPrecipMM in
00:02 12.4 °F 11.8 °F 999.9 in SSW 1.6 mph 4.8 mph 96 % 0.8 in
00:12 12.3 °F 11.7 °F 999.9 in Calm   4.8 mph 96 % 0.8 in
00:17 12.2 °F 11.6 °F 1000.2 in Calm   3.2 mph 96 % 0.8 in
00:22 12.1 °F 11.5 °F 1000.2 in Calm   3.2 mph 96 % 0.8 in
00:27 12.1 °F 11.5 °F 1000.2 in Calm     96 % 0.8 in
00:32 12.1 °F 11.5 °F 1000.2 in Calm     96 % 0.8 in
00:42 11.9 °F 11.3 °F 1000.6 in Calm     96 % 0.0 in
00:47 11.7 °F 11.1 °F 1000.6 in Calm     96 % 0.0 in
00:52 11.3 °F 10.5 °F 1000.6 in Calm   3.2 mph 95 % 0.0 in
00:57 11.0 °F 10.2 °F 1000.6 in Calm   3.2 mph 95 % 0.0 in
01:02 10.9 °F 10.3 °F 1000.6 in Calm   3.2 mph 96 % 0.0 in
01:12 10.9 °F 10.3 °F 1000.6 in Calm   1.6 mph 96 % 0.0 in
01:17 10.9 °F 10.3 °F 1000.6 in Calm     96 % 0.0 in
01:22 10.8 °F 10.2 °F 1000.6 in Calm     96 % 0.0 in
01:27 10.7 °F 10.1 °F 1000.6 in Calm     96 % 0.0 in
01:32 10.7 °F 10.1 °F 1000.6 in Calm     96 % 0.0 in
01:37 10.8 °F 10.3 °F 1000.6 in Calm   1.6 mph 97 % 0.0 in
01:42 10.9 °F 10.4 °F 1000.9 in Calm   1.6 mph 97 % 0.0 in
01:47 10.8 °F 10.2 °F 1000.9 in Calm   1.6 mph 96 % 0.0 in
01:52 10.8 °F 10.3 °F 1000.9 in Calm   1.6 mph 97 % 0.0 in
01:57 10.8 °F 10.3 °F 1000.9 in Calm     97 % 0.0 in
02:02 10.8 °F 10.3 °F 1000.9 in Calm     97 % 0.0 in
02:12 10.7 °F 10.1 °F 1001.2 in Calm     96 % 0.0 in
02:17 10.4 °F 9.8 °F 1000.9 in ESE 1.6 mph   96 % 0.0 in
02:22 10.1 °F 9.5 °F 1000.9 in Calm   3.2 mph 96 % 0.0 in
02:27 9.8 °F 9.2 °F 1000.9 in Calm   3.2 mph 96 % 0.0 in
02:32 9.6 °F 9.0 °F 1000.9 in Calm   3.2 mph 96 % 0.0 in
02:37 9.4 °F 8.8 °F 1001.2 in Calm     96 % 0.0 in
02:42 9.6 °F 9.1 °F 1000.9 in Calm     97 % 0.0 in
02:47 9.4 °F 8.8 °F 1001.2 in Calm     96 % 0.0 in
02:52 9.2 °F 8.6 °F 1001.2 in Calm     96 % 0.0 in
02:57 9.2 °F 8.6 °F 1001.2 in Calm     96 % 0.0 in
03:02 9.1 °F 8.6 °F 1001.2 in Calm     97 % 0.0 in
03:12 9.1 °F 8.6 °F 1001.2 in Calm     97 % 0.0 in
03:17 9.1 °F 8.6 °F 1001.2 in Calm     97 % 0.3 in
03:22 9.1 °F 8.6 °F 1001.2 in Calm     97 % 0.3 in
03:27 9.2 °F 8.7 °F 1001.2 in Calm     97 % 0.3 in
03:32 9.3 °F 8.8 °F 1001.2 in Calm     97 % 0.3 in
03:37 9.1 °F 8.6 °F 1001.2 in Calm     97 % 0.3 in
03:42 9.1 °F 8.6 °F 1001.2 in Calm     97 % 0.3 in
03:47 9.1 °F 8.6 °F 1001.2 in Calm     97 % 0.3 in
03:52 9.0 °F 8.5 °F 1001.6 in Calm     97 % 0.3 in
03:57 9.1 °F 8.6 °F 1001.6 in Calm     97 % 0.3 in
04:02 9.0 °F 8.5 °F 1001.6 in Calm     97 % 0.3 in
04:07 8.9 °F 8.4 °F 1001.6 in Calm     97 % 0.3 in
04:17 8.7 °F 8.3 °F 1001.6 in Calm     97 % 0.0 in
04:22 8.6 °F 8.2 °F 1001.6 in Calm     97 % 0.0 in
04:32 8.6 °F 8.2 °F 1001.6 in Calm     97 % 0.0 in
04:42 8.6 °F 8.2 °F 1001.6 in Calm     97 % 0.0 in
04:47 8.6 °F 8.2 °F 1001.6 in Calm     97 % 0.0 in
04:52 8.4 °F 8.0 °F 1001.6 in Calm     97 % 0.0 in
04:57 8.6 °F 8.2 °F 1001.6 in Calm     97 % 0.0 in
05:02 8.5 °F 8.1 °F 1001.6 in Calm     97 % 0.0 in
05:12 8.2 °F 7.8 °F 1001.9 in Calm     97 % 0.0 in
05:17 8.1 °F 7.7 °F 1001.9 in Calm     97 % 0.0 in
05:22 8.2 °F 7.8 °F 1001.9 in Calm     97 % 0.0 in
05:27 8.3 °F 7.9 °F 1001.9 in Calm     97 % 0.0 in
05:32 8.1 °F 7.7 °F 1001.9 in Calm     97 % 0.0 in
05:37 8.0 °F 7.6 °F 1001.9 in Calm     97 % 0.0 in
05:42 7.9 °F 7.5 °F 1001.9 in Calm     97 % 0.0 in
05:47 7.9 °F 7.5 °F 1001.9 in Calm     97 % 0.0 in
05:52 7.7 °F 7.3 °F 1001.9 in Calm     97 % 0.0 in
05:57 7.6 °F 7.2 °F 1001.9 in Calm     97 % 0.0 in
06:02 7.8 °F 7.4 °F 1001.9 in Calm     97 % 0.0 in
06:07 7.9 °F 7.5 °F 1001.9 in Calm     97 % 0.0 in
06:12 7.8 °F 7.4 °F 1001.9 in Calm     97 % 0.0 in
06:17 7.6 °F 7.2 °F 1001.9 in Calm     97 % 0.0 in
06:22 7.6 °F 7.2 °F 1001.9 in Calm     97 % 0.0 in
06:32 8.0 °F 7.6 °F 1001.9 in Calm     97 % 0.0 in
06:42 7.8 °F 7.4 °F 1001.9 in Calm     97 % 0.0 in
06:52 7.9 °F 7.5 °F 1002.3 in Calm     97 % 0.0 in
06:57 8.5 °F 8.1 °F 1002.3 in Calm     97 % 0.0 in
07:02 8.9 °F 8.4 °F 1002.3 in Calm     97 % 0.0 in
07:07 9.3 °F 8.8 °F 1002.3 in Calm     97 % 0.0 in
07:12 9.6 °F 9.1 °F 1002.3 in Calm     97 % 0.0 in
07:17 9.8 °F 9.3 °F 1002.3 in Calm     97 % 0.0 in
07:22 9.2 °F 8.4 °F 1002.3 in Calm     95 % 0.0 in
07:27 9.1 °F 8.5 °F 1002.6 in Calm     96 % 0.0 in
07:32 9.4 °F 8.8 °F 1002.6 in Calm     96 % 0.0 in
07:37 9.6 °F 9.0 °F 1002.6 in Calm     96 % 0.0 in
07:42 9.9 °F 9.4 °F 1002.6 in Calm     97 % 0.0 in
07:52 10.8 °F 10.3 °F 1002.6 in Calm     97 % 0.0 in
08:02 11.4 °F 10.8 °F 1002.9 in Calm     96 % 0.0 in
08:12 11.4 °F 10.8 °F 1002.6 in Calm     96 % 0.0 in
08:17 11.6 °F 11.0 °F 1002.9 in Calm     96 % 0.0 in
08:22 11.8 °F 11.2 °F 1002.6 in Calm     96 % 0.0 in
08:27 11.7 °F 10.9 °F 1002.6 in Calm     95 % 0.0 in
08:32 12.0 °F 11.4 °F 1002.9 in South 3.2 mph   96 % 0.0 in
08:37 12.3 °F 11.7 °F 1002.9 in SSW 1.6 mph 4.8 mph 96 % 0.0 in
08:42 12.4 °F 11.6 °F 1002.9 in SW 1.6 mph 4.8 mph 95 % 0.0 in
08:47 12.5 °F 11.7 °F 1002.9 in SSW 3.2 mph 6.4 mph 95 % 0.0 in
08:57 12.9 °F 12.1 °F 1002.9 in SSE 1.6 mph 6.4 mph 95 % 0.0 in
09:02 13.2 °F 12.4 °F 1002.9 in SSE 3.2 mph 6.4 mph 95 % 0.0 in
09:07 13.3 °F 12.4 °F 1002.9 in SSW 1.6 mph 6.4 mph 94 % 0.0 in
09:12 13.5 °F 12.6 °F 1002.9 in ESE 1.6 mph 6.4 mph 94 % 0.0 in
09:17 13.5 °F 12.4 °F 1002.9 in Calm   6.4 mph 93 % 0.0 in
09:22 13.6 °F 12.5 °F 1002.9 in South 1.6 mph 6.4 mph 93 % 0.0 in
09:32 13.7 °F 12.6 °F 1002.9 in SW 1.6 mph 4.8 mph 93 % 0.0 in
09:37 13.7 °F 12.4 °F 1002.9 in SE 3.2 mph 8.0 mph 92 % 0.0 in
09:42 13.7 °F 12.4 °F 1003.3 in SSW 4.8 mph 8.0 mph 92 % 0.0 in
09:47 13.7 °F 12.4 °F 1003.3 in Calm   8.0 mph 92 % 0.0 in
09:52 13.8 °F 12.5 °F 1003.3 in Calm   8.0 mph 92 % 0.0 in
09:57 13.9 °F 12.6 °F 1003.3 in WSW 1.6 mph 9.7 mph 92 % 0.0 in
10:02 14.0 °F 12.6 °F 1003.3 in SSE 4.8 mph 9.7 mph 91 % 0.0 in
10:12 14.3 °F 12.7 °F 1003.3 in SSW 3.2 mph 11.3 mph 90 % 0.0 in
10:17 14.4 °F 12.8 °F 1003.6 in SSE 3.2 mph 9.7 mph 90 % 0.0 in
10:22 14.5 °F 12.7 °F 1003.6 in SSW 4.8 mph 9.7 mph 89 % 0.0 in
10:27 14.6 °F 12.8 °F 1003.6 in SSE 6.4 mph 9.7 mph 89 % 0.0 in
10:32 14.4 °F 12.6 °F 1003.9 in SE 3.2 mph 9.7 mph 89 % 0.0 in
10:37 14.2 °F 12.6 °F 1003.9 in SSE 4.8 mph 8.0 mph 90 % 0.5 in
10:42 14.1 °F 12.7 °F 1003.9 in Calm   8.0 mph 91 % 0.5 in
10:47 13.9 °F 12.5 °F 1003.9 in SE 1.6 mph 8.0 mph 91 % 0.8 in
10:52 13.9 °F 12.6 °F 1003.6 in SE 3.2 mph 8.0 mph 92 % 0.8 in
10:57 13.9 °F 12.6 °F 1003.6 in Calm   8.0 mph 92 % 0.8 in
11:02 14.2 °F 12.9 °F 1003.6 in Calm   8.0 mph 92 % 0.8 in
11:07 14.4 °F 12.9 °F 1003.6 in ESE 3.2 mph 8.0 mph 91 % 0.8 in
11:12 14.8 °F 13.3 °F 1003.6 in SE 6.4 mph 8.0 mph 91 % 0.8 in
11:22 15.4 °F 13.4 °F 1003.6 in Calm   9.7 mph 88 % 0.8 in
11:32 15.9 °F 13.7 °F 1003.9 in SW 3.2 mph 9.7 mph 87 % 0.5 in
11:42 16.2 °F 13.7 °F 1003.9 in South 3.2 mph 12.9 mph 85 % 0.0 in
11:47 16.4 °F 13.5 °F 1003.9 in SSW 4.8 mph 12.9 mph 83 % 0.0 in
11:52 16.6 °F 13.7 °F 1003.9 in South 1.6 mph 14.5 mph 83 % 0.0 in
11:57 16.9 °F 14.2 °F 1003.9 in Calm   14.5 mph 84 % 0.0 in
12:02 17.3 °F 14.2 °F 1003.9 in South 4.8 mph 14.5 mph 82 % 0.0 in
12:12 17.5 °F 14.2 °F 1003.9 in SSE 3.2 mph 12.9 mph 81 % 0.0 in
12:17 17.9 °F 14.8 °F 1003.9 in ESE 4.8 mph 12.9 mph 82 % 0.0 in
12:22 17.6 °F 14.5 °F 1003.9 in SSE 3.2 mph 12.9 mph 82 % 0.0 in
12:32 17.8 °F 14.3 °F 1003.9 in West 1.6 mph 11.3 mph 80 % 0.0 in
12:42 18.1 °F 14.2 °F 1003.6 in SE 1.6 mph 12.9 mph 78 % 0.0 in
12:47 18.1 °F 14.2 °F 1003.6 in SSE 4.8 mph 11.3 mph 78 % 0.0 in
12:52 18.2 °F 13.9 °F 1003.6 in SSW 3.2 mph 12.9 mph 76 % 0.0 in
13:02 18.1 °F 13.6 °F 1003.6 in South 4.8 mph 12.9 mph 75 % 0.0 in
13:07 18.0 °F 13.3 °F 1003.9 in South 6.4 mph 14.5 mph 74 % 0.0 in
13:12 18.2 °F 14.1 °F 1003.6 in South 4.8 mph 14.5 mph 77 % 0.0 in
13:22 19.0 °F 15.1 °F 1003.6 in SE 4.8 mph 12.9 mph 78 % 0.0 in
13:27 19.5 °F 14.7 °F 1003.6 in SW 4.8 mph 12.9 mph 74 % 0.0 in
13:32 19.6 °F 14.6 °F 1003.6 in SE 4.8 mph 9.7 mph 73 % 0.0 in
13:37 19.8 °F 15.2 °F 1003.3 in NE 1.6 mph 19.3 mph 75 % 0.0 in
13:42 19.8 °F 14.8 °F 1003.3 in East 1.6 mph 19.3 mph 73 % 0.0 in
13:47 19.7 °F 14.5 °F 1003.3 in ESE 1.6 mph 19.3 mph 72 % 0.0 in
13:52 19.7 °F 14.1 °F 1003.3 in SSE 3.2 mph 9.7 mph 70 % 0.0 in
13:57 20.1 °F 14.0 °F 1003.3 in SSW 3.2 mph 9.7 mph 68 % 0.0 in
14:02 20.3 °F 14.6 °F 1003.3 in SSW 8.0 mph 9.7 mph 70 % 0.0 in
14:07 19.8 °F 13.3 °F 1003.3 in SW 6.4 mph 11.3 mph 66 % 0.0 in
14:12 19.7 °F 13.4 °F 1003.3 in Calm   11.3 mph 67 % 0.0 in
14:17 19.8 °F 13.7 °F 1002.9 in SW 1.6 mph 11.3 mph 68 % 0.0 in
14:22 19.8 °F 13.9 °F 1003.3 in South 3.2 mph 9.7 mph 69 % 0.0 in
14:27 19.8 °F 13.0 °F 1002.9 in SW 14.5 mph 17.7 mph 65 % 0.0 in
14:32 19.6 °F 13.3 °F 1002.9 in SSW 14.5 mph 20.9 mph 67 % 0.0 in
14:37 19.2 °F 12.9 °F 1002.9 in WSW 6.4 mph 22.5 mph 67 % 0.0 in
14:42 18.9 °F 12.9 °F 1002.9 in SW 8.0 mph 22.5 mph 68 % 0.3 in
14:52 19.5 °F 13.0 °F 1002.9 in SSW 12.9 mph 22.5 mph 66 % 0.3 in
15:02 19.7 °F 12.9 °F 1002.9 in SW 14.5 mph 22.5 mph 65 % 0.3 in
15:12 20.1 °F 12.1 °F 1002.9 in WSW 11.3 mph 20.9 mph 60 % 0.3 in
15:17 20.2 °F 13.6 °F 1002.9 in WSW 22.5 mph 22.5 mph 66 % 0.3 in
15:22 20.1 °F 12.6 °F 1002.9 in WSW 17.7 mph 22.5 mph 62 % 0.3 in
15:32 20.7 °F 12.9 °F 1002.9 in WSW 16.1 mph 22.5 mph 61 % 0.3 in
15:37 20.5 °F 13.0 °F 1002.9 in South 4.8 mph 22.5 mph 62 % 0.0 in
15:42 20.4 °F 12.9 °F 1003.3 in West 8.0 mph 19.3 mph 62 % 0.0 in
15:47 19.4 °F 12.9 °F 1003.3 in WNW 4.8 mph 19.3 mph 66 % 0.0 in
15:52 18.1 °F 13.0 °F 1003.3 in WNW 3.2 mph 20.9 mph 72 % 0.5 in
16:02 17.2 °F 13.3 °F 1003.3 in Calm   14.5 mph 78 % 0.5 in
16:12 16.9 °F 13.6 °F 1003.3 in ENE 8.0 mph 8.0 mph 81 % 0.5 in
16:17 17.0 °F 14.1 °F 1003.3 in NE 3.2 mph 8.0 mph 83 % 0.5 in
16:22 17.2 °F 13.7 °F 1003.3 in NNE 4.8 mph 11.3 mph 80 % 0.5 in
16:32 17.7 °F 14.4 °F 1003.3 in NNE 11.3 mph 16.1 mph 81 % 0.5 in
16:37 17.8 °F 14.1 °F 1003.6 in NNE 4.8 mph 16.1 mph 79 % 0.5 in
16:42 17.8 °F 14.3 °F 1003.6 in NE 8.0 mph 16.1 mph 80 % 0.5 in
16:47 17.6 °F 14.1 °F 1003.6 in NE 12.9 mph 16.1 mph 80 % 0.5 in
16:52 17.3 °F 13.8 °F 1003.3 in NE 9.7 mph 17.7 mph 80 % 0.3 in
16:57 17.2 °F 14.1 °F 1003.6 in ENE 6.4 mph 17.7 mph 82 % 0.3 in
17:02 17.1 °F 14.0 °F 1003.6 in NE 8.0 mph 17.7 mph 82 % 0.3 in
17:07 16.9 °F 14.0 °F 1003.6 in ENE 6.4 mph 16.1 mph 83 % 0.3 in
17:12 16.8 °F 13.9 °F 1003.6 in NE 4.8 mph 12.9 mph 83 % 0.3 in
17:17 16.7 °F 14.0 °F 1003.6 in NNE 6.4 mph 11.3 mph 84 % 0.3 in
17:22 16.5 °F 13.8 °F 1003.9 in NNE 4.8 mph 11.3 mph 84 % 0.3 in
17:32 16.3 °F 14.0 °F 1003.9 in Calm   11.3 mph 86 % 0.5 in
17:42 16.0 °F 13.1 °F 1003.9 in SE 12.9 mph 12.9 mph 83 % 0.5 in
17:52 17.1 °F 14.2 °F 1004.3 in Calm   19.3 mph 83 % 0.8 in
18:02 17.4 °F 14.7 °F 1004.3 in Calm   6.4 mph 84 % 0.8 in
18:12 17.3 °F 14.6 °F 1004.3 in East 1.6 mph 6.4 mph 84 % 0.8 in
18:17 17.2 °F 14.5 °F 1004.3 in ENE 1.6 mph 6.4 mph 84 % 0.8 in
18:22 17.0 °F 14.5 °F 1004.6 in East 1.6 mph 6.4 mph 85 % 0.8 in
18:32 16.7 °F 14.7 °F 1004.6 in NE 4.8 mph 12.9 mph 88 % 0.8 in
18:37 16.4 °F 14.4 °F 1004.6 in ESE 1.6 mph 12.9 mph 88 % 0.5 in
18:42 16.2 °F 14.0 °F 1004.6 in East 4.8 mph 12.9 mph 87 % 0.0 in
18:47 16.0 °F 14.0 °F 1004.6 in ESE 3.2 mph 12.9 mph 88 % 0.0 in
18:57 15.8 °F 14.0 °F 1004.3 in SE 3.2 mph 12.9 mph 89 % 0.0 in
19:02 15.7 °F 14.1 °F 1004.6 in SE 6.4 mph 12.9 mph 90 % 0.0 in
19:12 15.5 °F 13.7 °F 1005.0 in West 3.2 mph 8.0 mph 89 % 0.0 in
19:17 15.3 °F 13.3 °F 1005.0 in SE 4.8 mph 8.0 mph 88 % 2.3 in
19:22 15.2 °F 13.4 °F 1005.0 in East 1.6 mph 8.0 mph 89 % 4.8 in
19:27 15.0 °F 13.4 °F 1005.3 in WNW 3.2 mph 8.0 mph 90 % 5.1 in
19:32 14.8 °F 13.2 °F 1005.3 in Calm   6.4 mph 90 % 5.3 in
19:37 14.6 °F 13.1 °F 1005.6 in Calm   4.8 mph 91 % 5.3 in
19:42 14.5 °F 13.0 °F 1005.6 in Calm   4.8 mph 91 % 5.6 in
19:47 14.4 °F 12.9 °F 1005.6 in East 4.8 mph 4.8 mph 91 % 5.8 in
19:52 14.4 °F 12.9 °F 1006.0 in ESE 1.6 mph 6.4 mph 91 % 5.8 in
19:57 14.3 °F 13.0 °F 1006.0 in East 3.2 mph 6.4 mph 92 % 5.8 in
20:02 14.3 °F 13.0 °F 1006.0 in East 3.2 mph 6.4 mph 92 % 5.8 in
20:17 14.3 °F 13.2 °F 1006.3 in Calm   3.2 mph 93 % 2.5 in
20:27 14.2 °F 13.1 °F 1006.7 in East 1.6 mph 3.2 mph 93 % 0.5 in
20:32 14.2 °F 13.1 °F 1006.7 in ENE 1.6 mph 4.8 mph 93 % 0.5 in
20:37 14.2 °F 13.1 °F 1006.7 in Calm   4.8 mph 93 % 0.5 in
20:47 14.1 °F 13.0 °F 1006.7 in East 1.6 mph 4.8 mph 93 % 0.0 in
20:52 14.1 °F 13.1 °F 1006.7 in Calm   4.8 mph 94 % 0.0 in
20:57 14.1 °F 13.1 °F 1006.7 in Calm   4.8 mph 94 % 0.0 in
21:02 14.1 °F 13.1 °F 1007.0 in Calm   3.2 mph 94 % 0.0 in
21:12 14.0 °F 13.0 °F 1007.0 in Calm   3.2 mph 94 % 0.0 in
21:17 13.9 °F 12.9 °F 1007.0 in Calm   3.2 mph 94 % 0.0 in
21:22 13.9 °F 12.9 °F 1007.0 in Calm   1.6 mph 94 % 0.0 in
21:32 13.9 °F 12.9 °F 1007.0 in Calm   3.2 mph 94 % 0.0 in
21:42 13.7 °F 12.8 °F 1007.3 in Calm   1.6 mph 94 % 0.0 in
21:52 13.6 °F 12.7 °F 1007.3 in Calm   1.6 mph 94 % 0.0 in
21:57 13.5 °F 12.7 °F 1007.3 in Calm     95 % 0.0 in
22:02 13.4 °F 12.6 °F 1007.7 in Calm     95 % 0.0 in
22:07 13.4 °F 12.6 °F 1007.7 in Calm     95 % 0.0 in
22:12 13.3 °F 12.5 °F 1007.7 in Calm     95 % 0.0 in
22:17 13.1 °F 12.2 °F 1008.0 in Calm     94 % 0.0 in
22:22 12.8 °F 11.9 °F 1008.0 in Calm     94 % 0.0 in
22:27 12.7 °F 11.9 °F 1008.4 in Calm     95 % 0.0 in
22:32 12.5 °F 11.7 °F 1008.4 in Calm     95 % 0.0 in
22:37 12.5 °F 11.7 °F 1008.4 in Calm     95 % 0.0 in
22:42 12.6 °F 12.0 °F 1008.4 in Calm     96 % 0.0 in
22:47 12.6 °F 11.8 °F 1008.4 in Calm     95 % 0.0 in
22:52 12.3 °F 11.5 °F 1008.4 in Calm   1.6 mph 95 % 0.0 in
22:57 12.1 °F 11.3 °F 1008.4 in Calm   1.6 mph 95 % 0.0 in
23:02 12.3 °F 11.7 °F 1008.4 in Calm   1.6 mph 96 % 0.0 in
23:12 12.3 °F 11.7 °F 1008.4 in Calm   1.6 mph 96 % 0.0 in
23:22 12.6 °F 12.1 °F 1008.7 in Calm     97 % 0.0 in
23:32 12.3 °F 11.7 °F 1008.7 in Calm     96 % 0.0 in
23:37 12.1 °F 11.5 °F 1008.7 in Calm     96 % 0.0 in
23:42 12.0 °F 11.4 °F 1009.0 in Calm     96 % 0.0 in
23:47 12.0 °F 11.4 °F 1009.0 in Calm     96 % 0.0 in
23:52 11.9 °F 11.3 °F 1009.0 in Calm     96 % 0.0 in
23:57 11.8 °F 11.2 °F 1009.0 in Calm     96 % 0.0 in
Meteo18
Compliments of Weather Underground - 4 mb

Script developed by  Jim McMurry - jmcmurry@mwt.net Adapted for the template by  Wim van der Kuil - Leuven-Template.eu

You find our weather info also at:

European Weather Network

Weather Underground

Equipment we use:

Weather-station
Davis Vue

Weather-program
Meteobridge

Weather-server
Raspberry PI 2 B+

Provider
1 and 1

Davis Vue

Meteobridge

Raspberry PI 2 B+

1 and 1